Time;durP1;ratioP1;P1;durP2;ratioP2;P2;SDS_P1;SDS_P2;PMS_P1;PMS_P2;Temp;Humidity;BMP_temperature;BMP_pressure;BME280_temperature;BME280_humidity;BME280_pressure;Samples;Min_cycle;Max_cycle;Signal;HPM_P1;HPM_P2
2022/02/14 00:00:15;;;;;;;17.70;8.95;;;;;;;1.22;68.89;100386.66;1711412;83;21070;-69
2022/02/14 00:02:43;;;;;;;20.52;9.20;;;;;;;1.18;68.91;100390.45;1713529;82;21436;-69
2022/02/14 00:05:09;;;;;;;22.98;9.55;;;;;;;1.14;68.90;100385.90;1727798;82;21002;-69
2022/02/14 00:07:35;;;;;;;18.48;8.35;;;;;;;1.14;68.91;100379.34;1710890;83;21026;-69
2022/02/14 00:10:01;;;;;;;19.50;9.35;;;;;;;1.14;68.89;100379.80;1711146;83;21078;-69
2022/02/14 00:12:27;;;;;;;20.25;9.00;;;;;;;1.12;68.88;100381.25;1712818;82;21072;-69
2022/02/14 00:14:53;;;;;;;17.48;8.93;;;;;;;1.09;68.88;100370.94;1711787;83;21028;-69
2022/02/14 00:17:20;;;;;;;19.27;8.18;;;;;;;1.07;68.89;100372.84;1708477;83;20909;-69
2022/02/14 00:19:51;;;;;;;15.75;8.45;;;;;;;1.06;68.88;100365.91;1703929;84;21131;-69
2022/02/14 00:22:14;;;;;;;19.20;8.80;;;;;;;1.06;68.88;100371.63;1703081;84;21292;-69
2022/02/14 00:24:40;;;;;;;19.05;9.33;;;;;;;1.03;68.89;100364.82;1704035;84;20996;-69
2022/02/14 00:27:06;;;;;;;17.98;8.73;;;;;;;1.05;68.88;100369.98;1704154;84;21039;-69
2022/02/14 00:29:32;;;;;;;17.57;8.35;;;;;;;1.02;68.89;100367.11;1703914;84;21036;-69
2022/02/14 00:31:58;;;;;;;17.20;9.58;;;;;;;1.00;68.89;100368.52;1703028;84;21048;-69
2022/02/14 00:34:24;;;;;;;16.05;7.87;;;;;;;0.98;68.89;100370.89;1702444;84;21167;-69
2022/02/14 00:36:50;;;;;;;18.25;9.23;;;;;;;0.94;68.89;100358.94;1702501;84;20909;-69
2022/02/14 00:39:16;;;;;;;27.30;9.88;;;;;;;0.93;68.90;100352.84;1702342;84;21056;-69
2022/02/14 00:41:42;;;;;;;23.52;9.33;;;;;;;0.93;68.89;100358.56;1702323;83;20941;-69
2022/02/14 00:44:08;;;;;;;20.92;9.13;;;;;;;0.93;68.90;100358.56;1702532;84;21556;-69
2022/02/14 00:46:34;;;;;;;17.85;8.48;;;;;;;0.91;68.90;100360.47;1702414;84;21544;-68
2022/02/14 00:49:00;;;;;;;17.57;7.85;;;;;;;0.91;68.90;100361.78;1702205;84;21573;-69
2022/02/14 00:51:26;;;;;;;18.17;8.53;;;;;;;0.90;68.92;100352.22;1702547;84;21521;-69
2022/02/14 00:53:52;;;;;;;16.60;7.83;;;;;;;0.86;68.90;100350.75;1702626;83;21045;-69
2022/02/14 00:56:18;;;;;;;18.70;8.73;;;;;;;0.84;68.92;100351.35;1702448;84;21515;-69
2022/02/14 00:58:44;;;;;;;15.20;7.97;;;;;;;0.82;68.92;100341.42;1702377;84;21138;-68
2022/02/14 01:01:10;;;;;;;13.30;7.78;;;;;;;0.79;68.91;100353.45;1702502;84;21044;-69
2022/02/14 01:03:36;;;;;;;15.63;7.55;;;;;;;0.79;68.94;100346.89;1702694;84;21520;-69
2022/02/14 01:06:02;;;;;;;16.67;7.78;;;;;;;0.78;68.94;100339.48;1702472;84;21485;-69
2022/02/14 01:08:28;;;;;;;17.27;8.60;;;;;;;0.77;68.93;100345.70;1702272;83;21531;-68
2022/02/14 01:10:54;;;;;;;16.02;8.23;;;;;;;0.74;68.95;100342.47;1695157;84;21068;-69
2022/02/14 01:13:20;;;;;;;16.20;8.20;;;;;;;0.73;68.97;100336.84;1675147;85;21564;-68
2022/02/14 01:15:46;;;;;;;14.25;8.03;;;;;;;0.74;68.97;100329.34;1688335;84;21186;-69
2022/02/14 01:18:12;;;;;;;14.68;7.58;;;;;;;0.74;68.95;100338.52;1702275;82;21011;-69
2022/02/14 01:20:38;;;;;;;16.55;8.08;;;;;;;0.71;68.96;100334.78;1704851;82;21642;-69
2022/02/14 01:23:04;;;;;;;17.37;8.00;;;;;;;0.71;68.96;100334.78;1701200;84;21321;-69
2022/02/14 01:25:30;;;;;;;18.32;6.97;;;;;;;0.68;68.96;100328.44;1688124;84;21055;-68
2022/02/14 01:27:57;;;;;;;16.37;8.68;;;;;;;0.67;68.98;100328.09;1703953;84;21036;-68
2022/02/14 01:30:22;;;;;;;13.98;7.75;;;;;;;0.65;68.99;100315.08;1704246;84;20983;-69
2022/02/14 01:32:48;;;;;;;16.30;8.35;;;;;;;0.65;68.99;100320.79;1704203;83;21056;-68
2022/02/14 01:35:14;;;;;;;14.95;8.23;;;;;;;0.65;68.99;100319.48;1703994;84;21019;-69
2022/02/14 01:37:41;;;;;;;17.48;8.48;;;;;;;0.64;68.98;100315.17;1671215;84;38514;-69
2022/02/14 01:40:09;;;;;;;14.78;7.25;;;;;;;0.63;68.99;100310.89;1679677;84;21075;-68
2022/02/14 01:42:35;;;;;;;14.45;7.42;;;;;;;0.62;68.99;100317.08;1653556;84;21036;-68
2022/02/14 01:45:01;;;;;;;17.17;8.05;;;;;;;0.60;69.00;100313.73;1704070;82;20929;-68
2022/02/14 01:47:27;;;;;;;14.45;7.87;;;;;;;0.58;68.99;100317.77;1702604;84;21796;-68
2022/02/14 01:49:53;;;;;;;14.80;7.62;;;;;;;0.59;69.00;100313.36;1700934;83;20966;-68
2022/02/14 01:52:21;;;;;;;13.95;7.67;;;;;;;0.59;68.99;100312.05;1700960;84;21415;-68
2022/02/14 01:54:48;;;;;;;14.87;6.75;;;;;;;0.59;69.00;100306.80;1700725;82;21083;-68
2022/02/14 01:57:16;;;;;;;16.23;8.13;;;;;;;0.57;68.97;100308.68;1703631;84;21079;-68
2022/02/14 01:59:42;;;;;;;15.03;7.97;;;;;;;0.56;68.98;100303.09;1704056;84;21128;-68
2022/02/14 02:02:09;;;;;;;16.12;7.80;;;;;;;0.53;69.00;100300.69;1703922;84;21075;-68
2022/02/14 02:14:24;;;;;;;14.95;8.90;;;;;;;0.45;68.99;100287.64;1790991;80;21046;-69
2022/02/14 02:16:50;;;;;;;13.22;7.12;;;;;;;0.43;68.98;100284.27;1790981;80;21697;-69
2022/02/14 02:19:17;;;;;;;17.27;8.43;;;;;;;0.42;68.98;100277.84;1790811;80;20856;-68
2022/02/14 02:21:48;;;;;;;19.00;9.70;;;;;;;0.43;68.96;100273.78;1790521;80;21538;-69
2022/02/14 02:24:17;;;;;;;19.60;9.58;;;;;;;0.43;68.97;100275.56;1789714;80;21003;-68
2022/02/14 02:27:03;;;;;;;14.20;9.05;;;;;;;0.40;68.98;100271.37;1790993;80;21082;-69
2022/02/14 02:29:30;;;;;;;17.07;8.85;;;;;;;0.40;68.97;100274.00;1791102;80;21539;-69
2022/02/14 02:31:56;;;;;;;21.80;7.10;;;;;;;0.37;68.95;100266.36;1776747;80;21669;-69
2022/02/14 02:34:23;;;;;;;15.40;7.85;;;;;;;0.35;68.95;100264.30;1759749;81;20931;-69
2022/02/14 02:36:57;;;;;;;15.18;7.70;;;;;;;0.34;68.96;100260.02;1759329;81;21074;-69
2022/02/14 02:39:23;;;;;;;20.48;8.33;;;;;;;0.33;68.95;100259.65;1759667;81;21038;-69
2022/02/14 02:41:49;;;;;;;15.60;7.95;;;;;;;0.30;68.95;100255.94;1759563;81;21133;-68
2022/02/14 02:44:16;;;;;;;16.73;7.53;;;;;;;0.29;68.95;100255.56;1759770;81;21035;-68
2022/02/14 02:46:42;;;;;;;14.47;7.37;;;;;;;0.29;68.96;100252.94;1789996;79;20971;-68
2022/02/14 02:49:20;;;;;;;11.60;6.70;;;;;;;0.29;68.94;100252.94;1795956;79;21023;-68
2022/02/14 02:51:49;;;;;;;16.20;6.90;;;;;;;0.26;68.92;100246.60;1791179;79;21023;-68
2022/02/14 02:54:15;;;;;;;10.82;5.37;;;;;;;0.26;68.93;100240.05;1796173;79;21126;-68
2022/02/14 02:56:43;;;;;;;12.70;6.78;;;;;;;0.29;68.91;100242.45;1795882;79;20983;-68
2022/02/14 02:59:09;;;;;;;13.35;7.00;;;;;;;0.32;68.89;100244.00;1795624;80;21483;-68
2022/02/14 03:01:36;;;;;;;13.55;6.28;;;;;;;0.35;68.87;100245.94;1796172;79;22202;-68
2022/02/14 03:04:03;;;;;;;11.85;7.22;;;;;;;0.34;68.87;100237.73;1795568;79;20991;-68
2022/02/14 03:06:29;;;;;;;16.02;7.03;;;;;;;0.33;68.86;100229.95;1796024;79;22099;-68
2022/02/14 03:08:55;;;;;;;13.48;6.28;;;;;;;0.33;68.84;100233.42;1789603;79;21042;-69
2022/02/14 03:11:21;;;;;;;15.48;7.60;;;;;;;0.32;68.83;100238.30;1786838;80;20990;-68
2022/02/14 03:13:47;;;;;;;11.00;6.53;;;;;;;0.31;68.81;100232.70;1788454;80;21030;-68
2022/02/14 03:16:14;;;;;;;16.65;8.63;;;;;;;0.30;68.81;100232.80;1788545;80;21010;-68
2022/02/14 03:18:41;;;;;;;17.40;9.33;;;;;;;0.29;68.80;100231.95;1788475;80;21055;-68
2022/02/14 03:21:07;;;;;;;15.85;8.05;;;;;;;0.27;68.79;100230.41;1788029;80;21554;-68
2022/02/14 03:23:34;;;;;;;11.20;7.05;;;;;;;0.27;68.78;100230.41;1787998;80;21511;-68
2022/02/14 03:26:00;;;;;;;12.30;7.00;;;;;;;0.26;68.78;100229.56;1787593;80;20999;-68
2022/02/14 03:28:26;;;;;;;13.70;7.08;;;;;;;0.25;68.77;100223.09;1787802;80;21026;-68
2022/02/14 03:30:52;;;;;;;11.43;7.15;;;;;;;0.25;68.76;100232.27;1787088;80;21802;-68
2022/02/14 03:33:19;;;;;;;12.88;6.95;;;;;;;0.24;68.77;100223.59;1741761;82;21481;-68
2022/02/14 03:35:45;;;;;;;12.75;7.50;;;;;;;0.20;68.76;100220.83;1741953;82;21490;-68
2022/02/14 03:38:11;;;;;;;19.37;7.50;;;;;;;0.18;68.73;100226.63;1741709;82;21001;-68
2022/02/14 03:40:38;;;;;;;13.48;6.70;;;;;;;0.17;68.75;100224.14;1741833;82;21342;-68
2022/02/14 03:43:06;;;;;;;13.08;6.92;;;;;;;0.14;68.74;100221.23;1741285;82;21234;-68
2022/02/14 03:45:33;;;;;;;12.03;6.90;;;;;;;0.14;68.75;100222.55;1741549;82;21492;-68
2022/02/14 03:48:00;;;;;;;15.75;7.67;;;;;;;0.12;68.74;100215.28;1741680;81;21009;-68
2022/02/14 03:50:26;;;;;;;15.05;7.37;;;;;;;0.09;68.75;100215.97;1741649;82;21029;-68
2022/02/14 03:52:52;;;;;;;18.65;7.47;;;;;;;0.10;68.74;100206.70;1741794;82;21025;-68
2022/02/14 03:55:18;;;;;;;18.52;8.18;;;;;;;0.13;68.74;100208.25;1754493;80;21127;-68
2022/02/14 03:57:45;;;;;;;10.75;6.35;;;;;;;0.12;68.72;100211.81;1757845;80;21004;-68
2022/02/14 04:00:13;;;;;;;15.28;7.53;;;;;;;0.13;68.73;100210.88;1741662;82;21494;-68
2022/02/14 04:02:40;;;;;;;13.10;7.17;;;;;;;0.10;68.73;100210.63;1741654;82;21040;-68
2022/02/14 04:05:07;;;;;;;12.03;6.15;;;;;;;0.08;68.73;100203.33;1741763;82;21091;-68
2022/02/14 04:07:33;;;;;;;10.60;6.87;;;;;;;0.08;68.72;100198.08;1741824;81;21900;-68
2022/02/14 04:09:59;;;;;;;12.18;7.15;;;;;;;0.07;68.73;100182.48;1741531;82;21662;-68
2022/02/14 04:12:25;;;;;;;14.23;7.62;;;;;;;0.08;68.71;100185.44;1746486;81;21062;-68
2022/02/14 04:14:51;;;;;;;18.05;8.85;;;;;;;0.07;68.74;100184.60;1759215;81;20972;-69
2022/02/14 04:17:18;;;;;;;17.10;8.13;;;;;;;0.09;68.71;100174.02;1758525;81;20998;-68
2022/02/14 04:19:44;;;;;;;11.85;6.80;;;;;;;0.10;68.71;100176.55;1759112;81;21118;-68
2022/02/14 04:22:10;;;;;;;14.93;6.83;;;;;;;0.13;68.70;100170.23;1759069;81;20983;-68
2022/02/14 04:24:36;;;;;;;14.28;8.40;;;;;;;0.13;68.71;100165.84;1759056;81;21093;-68
2022/02/14 04:27:03;;;;;;;12.47;7.58;;;;;;;0.14;68.68;100167.48;1759031;81;21023;-68
2022/02/14 04:29:29;;;;;;;13.38;7.80;;;;;;;0.16;68.69;100160.84;1758870;81;21062;-68
2022/02/14 04:31:55;;;;;;;13.40;7.92;;;;;;;0.20;68.67;100168.39;1745536;81;21967;-69
2022/02/14 04:34:21;;;;;;;14.00;7.15;;;;;;;0.20;68.65;100159.21;1728894;81;21048;-68
2022/02/14 04:36:49;;;;;;;14.03;7.50;;;;;;;0.20;68.65;100156.59;1729368;83;21028;-68
2022/02/14 04:39:15;;;;;;;16.77;7.35;;;;;;;0.21;68.65;100150.88;1728593;82;21035;-68
2022/02/14 04:41:42;;;;;;;13.98;8.00;;;;;;;0.23;68.63;100150.27;1729189;82;21087;-68
2022/02/14 04:44:08;;;;;;;17.67;7.87;;;;;;;0.23;68.63;100140.62;1729028;82;21501;-68
2022/02/14 04:46:34;;;;;;;12.13;7.72;;;;;;;0.22;68.63;100139.41;1728649;83;21589;-68
2022/02/14 04:49:00;;;;;;;18.23;8.18;;;;;;;0.20;68.60;100138.23;1729066;81;21597;-68
2022/02/14 04:51:27;;;;;;;22.37;10.15;;;;;;;0.18;68.61;100142.73;1728962;82;20951;-68
2022/02/14 04:53:53;;;;;;;20.08;10.25;;;;;;;0.18;68.61;100145.35;1729030;82;21131;-68
2022/02/14 04:56:19;;;;;;;16.20;8.45;;;;;;;0.16;68.61;100145.95;1728627;82;21141;-68
2022/02/14 04:58:46;;;;;;;15.98;8.43;;;;;;;0.14;68.60;100150.45;1728786;82;21127;-68
2022/02/14 05:01:12;;;;;;;17.65;9.33;;;;;;;0.13;68.60;100144.86;1728823;82;21025;-68
2022/02/14 05:03:38;;;;;;;17.98;8.08;;;;;;;0.11;68.62;100157.23;1728619;82;21028;-68
2022/02/14 05:06:04;;;;;;;30.52;14.13;;;;;;;0.09;68.60;100151.27;1732603;80;21060;-68
2022/02/14 05:08:30;;;;;;;27.73;11.75;;;;;;;0.09;68.59;100147.34;1770452;80;20983;-68
2022/02/14 05:10:56;;;;;;;17.50;9.73;;;;;;;0.07;68.61;100147.91;1741498;82;21072;-68
2022/02/14 05:13:23;;;;;;;17.00;8.63;;;;;;;0.06;68.61;100151.97;1741761;82;21064;-68
2022/02/14 05:15:50;;;;;;;19.27;9.58;;;;;;;0.05;68.61;100140.64;1741671;82;21001;-68
2022/02/14 05:18:16;;;;;;;18.20;8.45;;;;;;;0.07;68.62;100143.16;1741786;81;21088;-68
2022/02/14 05:20:42;;;;;;;16.48;8.68;;;;;;;0.10;68.62;100144.25;1741706;82;21589;-68
2022/02/14 05:23:08;;;;;;;19.48;9.03;;;;;;;0.10;68.63;100142.47;1741637;82;21470;-68
2022/02/14 05:25:34;;;;;;;23.05;10.35;;;;;;;0.10;68.64;100151.64;1741645;81;21045;-68
2022/02/14 05:28:06;;;;;;;19.95;8.93;;;;;;;0.09;68.62;100153.89;1741815;82;21575;-68
2022/02/14 05:30:33;;;;;;;18.52;9.48;;;;;;;0.08;68.64;100153.52;1741437;82;21013;-68
2022/02/14 05:33:00;;;;;;;23.45;10.08;;;;;;;0.05;68.65;100145.87;1730241;82;21038;-68
2022/02/14 05:35:26;;;;;;;20.25;8.88;;;;;;;0.07;68.67;100147.91;1728923;82;21906;-68
2022/02/14 05:37:52;;;;;;;15.75;8.00;;;;;;;0.07;68.67;100149.22;1728938;82;21066;-68
2022/02/14 05:40:19;;;;;;;19.65;8.78;;;;;;;0.05;68.67;100148.50;1728458;83;21030;-68
2022/02/14 05:42:46;;;;;;;22.20;9.98;;;;;;;0.04;68.68;100145.50;1728826;82;21062;-68
2022/02/14 05:45:12;;;;;;;18.07;9.10;;;;;;;0.05;68.69;100147.66;1728637;82;21044;-68
2022/02/14 05:47:38;;;;;;;16.00;7.60;;;;;;;0.04;68.70;100145.50;1734970;82;21007;-68
2022/02/14 05:50:05;;;;;;;17.25;9.80;;;;;;;0.06;68.71;100142.32;1728936;83;21061;-68
2022/02/14 05:52:31;;;;;;;21.23;10.18;;;;;;;0.07;68.72;100141.34;1728867;82;20999;-68
2022/02/14 05:54:57;;;;;;;26.07;10.98;;;;;;;0.08;68.73;100139.10;1728565;83;21046;-68
2022/02/14 05:57:23;;;;;;;19.02;8.70;;;;;;;0.10;68.73;100141.63;1728789;82;21125;-68
2022/02/14 05:59:49;;;;;;;17.15;9.48;;;;;;;0.11;68.73;100146.74;1728481;82;20891;-68
2022/02/14 06:02:15;;;;;;;22.13;10.93;;;;;;;0.15;68.74;100136.41;1728909;82;21006;-68
2022/02/14 06:04:41;;;;;;;20.95;8.38;;;;;;;0.19;68.74;100141.80;1728912;82;21039;-68
2022/02/14 06:07:07;;;;;;;18.05;8.70;;;;;;;0.19;68.74;100144.42;1728910;82;20975;-68
2022/02/14 06:09:34;;;;;;;15.60;8.30;;;;;;;0.19;68.74;100140.48;1728798;83;21125;-68
2022/02/14 06:12:00;;;;;;;20.48;11.08;;;;;;;0.19;68.75;100142.27;1712598;82;21006;-68
2022/02/14 06:14:26;;;;;;;16.35;8.73;;;;;;;0.16;68.75;100139.40;1699174;84;21057;-68
2022/02/14 06:16:52;;;;;;;14.28;7.45;;;;;;;0.19;68.76;100133.92;1699387;83;21022;-68
2022/02/14 06:19:18;;;;;;;14.93;7.45;;;;;;;0.20;68.76;100131.67;1740931;81;21012;-68
2022/02/14 06:21:44;;;;;;;15.20;8.58;;;;;;;0.22;68.78;100131.08;1721254;83;21005;-68
2022/02/14 06:24:10;;;;;;;18.62;9.15;;;;;;;0.24;68.76;100132.30;1721255;83;21009;-68
2022/02/14 06:26:36;;;;;;;16.80;8.48;;;;;;;0.28;68.75;100141.12;1710032;83;21057;-68
2022/02/14 06:29:03;;;;;;;16.95;7.97;;;;;;;0.30;68.76;100135.30;1703916;81;21401;-68
2022/02/14 06:31:29;;;;;;;20.75;9.63;;;;;;;0.34;68.76;100131.52;1717308;83;21058;-68
2022/02/14 06:33:56;;;;;;;18.20;8.53;;;;;;;0.36;68.75;100125.67;1725364;83;21107;-68
2022/02/14 06:36:23;;;;;;;15.95;7.78;;;;;;;0.39;68.76;100122.82;1725307;83;21010;-68
2022/02/14 06:38:50;;;;;;;17.98;7.95;;;;;;;0.43;68.75;100115.09;1725192;83;20994;-68
2022/02/14 06:41:16;;;;;;;16.52;8.10;;;;;;;0.50;68.74;100122.88;1725734;83;21059;-68
2022/02/14 06:43:42;;;;;;;17.95;10.35;;;;;;;0.54;68.72;100116.92;1725106;83;21086;-68
2022/02/14 06:46:08;;;;;;;15.53;8.50;;;;;;;0.58;68.70;100122.78;1710942;83;21170;-68
2022/02/14 06:48:35;;;;;;;17.35;8.18;;;;;;;0.64;68.70;100128.87;1702923;83;21037;-68
2022/02/14 06:51:01;;;;;;;56.25;25.17;;;;;;;0.84;68.68;100120.38;1710168;83;21136;-68
2022/02/14 06:53:27;;;;;;;19.40;9.68;;;;;;;1.45;68.39;100120.45;1720048;83;21086;-68
2022/02/14 06:55:54;;;;;;;19.95;11.60;;;;;;;1.67;68.03;100117.00;1725322;83;21046;-68
2022/02/14 06:58:22;;;;;;;19.27;9.38;;;;;;;1.63;68.01;100119.03;1724875;83;21113;-68
2022/02/14 07:00:48;;;;;;;16.97;8.85;;;;;;;1.62;68.13;100113.91;1724266;82;21055;-69
2022/02/14 07:03:14;;;;;;;17.30;8.75;;;;;;;1.69;68.18;100108.53;1724435;83;21015;-68
2022/02/14 07:05:43;;;;;;;21.65;11.50;;;;;;;1.78;68.21;100106.48;1723488;83;21050;-68
2022/02/14 07:08:09;;;;;;;22.05;11.38;;;;;;;1.87;68.21;100107.89;1703572;83;21582;-68
2022/02/14 07:10:35;;;;;;;18.02;10.13;;;;;;;1.99;68.20;100107.41;1701579;84;21099;-68
2022/02/14 07:13:01;;;;;;;20.08;9.58;;;;;;;2.05;68.20;100106.91;1748272;81;21062;-68
2022/02/14 07:15:27;;;;;;;18.62;11.20;;;;;;;2.11;68.13;100109.54;1749982;81;21321;-69
2022/02/14 07:17:53;;;;;;;25.57;14.73;;;;;;;2.19;68.09;100101.37;1758434;81;21007;-70
2022/02/14 07:20:20;;;;;;;29.92;10.78;;;;;;;2.24;68.00;100107.11;1764851;81;20963;-69
2022/02/14 07:22:46;;;;;;;18.05;9.38;;;;;;;2.31;67.96;100097.77;1764788;81;21140;-69
2022/02/14 07:25:12;;;;;;;16.42;9.53;;;;;;;2.38;67.86;100094.98;1762343;80;21011;-69
2022/02/14 07:27:38;;;;;;;20.35;12.25;;;;;;;2.44;67.77;100081.31;1762531;81;21014;-69
2022/02/14 07:30:07;;;;;;;22.07;11.12;;;;;;;2.49;67.64;100094.94;1741905;80;21105;-69
2022/02/14 07:32:33;;;;;;;23.00;9.83;;;;;;;2.57;67.55;100094.80;1734210;82;21491;-69
2022/02/14 07:34:59;;;;;;;19.12;8.98;;;;;;;2.64;67.44;100087.55;1734289;82;21858;-69
2022/02/14 07:37:25;;;;;;;21.05;9.53;;;;;;;2.70;67.34;100086.23;1739553;81;21011;-69
2022/02/14 07:39:51;;;;;;;21.95;11.85;;;;;;;2.75;67.22;100093.24;1736109;81;20999;-69
2022/02/14 07:42:19;;;;;;;23.65;12.00;;;;;;;2.82;67.11;100090.45;1733016;82;21011;-69
2022/02/14 07:44:45;;;;;;;18.20;9.70;;;;;;;2.88;66.97;100074.16;1755237;81;21062;-69
2022/02/14 07:47:11;;;;;;;15.45;9.98;;;;;;;2.90;66.79;100073.54;1764907;80;21163;-69
2022/02/14 07:49:37;;;;;;;20.68;9.35;;;;;;;2.97;66.66;100079.95;1765041;80;21074;-69
2022/02/14 07:52:03;;;;;;;18.57;9.95;;;;;;;3.03;66.54;100086.02;1766710;80;21590;-69
2022/02/14 07:54:29;;;;;;;21.97;12.40;;;;;;;3.08;66.39;100078.58;1762147;80;21060;-69
2022/02/14 07:56:55;;;;;;;210.80;129.95;;;;;;;3.11;66.28;100083.58;1730192;82;20970;-69
2022/02/14 07:59:21;;;;;;;949.83;489.27;;;;;;;3.19;66.18;100075.86;1733864;81;21160;-69
2022/02/14 08:01:47;;;;;;;573.23;314.32;;;;;;;3.21;66.03;100076.55;1743047;81;21018;-69
2022/02/14 08:04:13;;;;;;;189.13;109.78;;;;;;;3.26;65.94;100069.58;1749150;81;21056;-70
2022/02/14 08:06:40;;;;;;;66.33;35.35;;;;;;;3.27;65.77;100060.21;1759981;80;20995;-71
2022/02/14 08:09:16;;;;;;;161.10;75.57;;;;;;;3.32;65.68;100065.94;1745091;81;21022;-70
2022/02/14 08:11:37;;;;;;;330.35;142.00;;;;;;;3.35;65.58;100068.30;1759592;80;21161;-69
2022/02/14 08:14:03;;;;;;;62.10;40.55;;;;;;;3.40;65.50;100063.48;1742497;81;21018;-70
2022/02/14 08:16:30;;;;;;;48.65;30.92;;;;;;;3.42;65.39;100064.17;1737457;80;21055;-69
2022/02/14 08:18:59;;;;;;;22.70;14.25;;;;;;;3.45;65.28;100071.81;1733831;82;21100;-69
2022/02/14 08:21:25;;;;;;;39.60;21.55;;;;;;;3.50;65.15;100072.26;1755669;81;21085;-69
2022/02/14 08:23:52;;;;;;;26.48;15.93;;;;;;;3.56;65.07;100067.41;1744638;81;21748;-69
2022/02/14 08:26:18;;;;;;;20.57;12.90;;;;;;;3.60;64.96;100075.41;1733627;82;21030;-70
2022/02/14 08:28:45;;;;;;;21.00;11.60;;;;;;;3.64;64.86;100064.94;1734328;82;21002;-69
2022/02/14 08:31:11;;;;;;;18.52;11.08;;;;;;;3.71;64.78;100068.71;1740662;81;21010;-69
2022/02/14 08:33:37;;;;;;;26.07;15.70;;;;;;;3.78;64.67;100067.20;1754959;81;21533;-69
2022/02/14 08:36:05;;;;;;;16.95;9.35;;;;;;;3.85;64.60;100057.30;1761962;81;21061;-69
2022/02/14 08:38:34;;;;;;;23.00;13.53;;;;;;;3.90;64.52;100059.55;1732925;82;21089;-70
2022/02/14 08:41:01;;;;;;;32.35;20.30;;;;;;;3.98;64.45;100061.00;1733180;82;20999;-70
2022/02/14 08:43:27;;;;;;;23.75;12.45;;;;;;;4.04;64.38;100060.47;1748054;81;21086;-69
2022/02/14 08:45:53;;;;;;;21.75;10.63;;;;;;;4.11;64.35;100060.27;1763397;80;20876;-69
2022/02/14 08:48:19;;;;;;;19.42;11.25;;;;;;;4.18;64.29;100061.39;1753619;81;21098;-69
2022/02/14 08:50:45;;;;;;;20.27;9.83;;;;;;;4.23;64.22;100060.48;1745061;81;21002;-69
2022/02/14 08:53:11;;;;;;;18.48;10.75;;;;;;;4.27;64.16;100064.52;1760151;80;21437;-70
2022/02/14 08:55:37;;;;;;;20.92;10.38;;;;;;;4.29;64.00;100055.95;1763506;80;21038;-69
2022/02/14 08:58:04;;;;;;;19.25;10.35;;;;;;;4.36;63.92;100064.19;1763585;81;21319;-70
2022/02/14 09:00:30;;;;;;;17.12;9.15;;;;;;;4.41;63.84;100058.83;1756987;81;21116;-70
2022/02/14 09:02:56;;;;;;;18.70;10.48;;;;;;;4.46;63.77;100051.33;1753625;81;21007;-70
2022/02/14 09:05:23;;;;;;;18.85;10.35;;;;;;;4.49;63.67;100056.33;1732611;82;21031;-70
2022/02/14 09:07:50;;;;;;;22.37;11.85;;;;;;;4.57;63.61;100046.39;1729515;81;20998;-70
2022/02/14 09:10:17;;;;;;;18.32;10.23;;;;;;;4.63;63.53;100041.02;1732029;81;21050;-70
2022/02/14 09:12:46;;;;;;;18.05;9.13;;;;;;;4.66;63.47;100042.06;1756725;81;21575;-70
2022/02/14 09:15:11;;;;;;;15.30;8.85;;;;;;;4.69;63.39;100036.48;1741156;81;21018;-70
2022/02/14 09:17:37;;;;;;;13.48;8.78;;;;;;;4.69;63.18;100049.70;1757856;80;21030;-70
2022/02/14 09:20:04;;;;;;;14.05;9.35;;;;;;;4.75;63.09;100039.91;1727178;81;21937;-70
2022/02/14 09:22:30;;;;;;;16.42;9.75;;;;;;;4.78;62.92;100044.91;1744894;81;21546;-70
2022/02/14 09:24:57;;;;;;;20.08;10.28;;;;;;;4.82;62.83;100046.30;1758971;80;22101;-70
2022/02/14 09:27:25;;;;;;;25.68;13.30;;;;;;;4.86;62.73;100040.56;1738808;81;20991;-70
2022/02/14 09:29:51;;;;;;;19.17;10.85;;;;;;;4.93;62.66;100028.93;1747718;81;20975;-70
2022/02/14 09:32:17;;;;;;;12.78;8.93;;;;;;;4.99;62.59;100034.98;1743546;81;21072;-70
2022/02/14 09:34:44;;;;;;;25.77;14.33;;;;;;;5.08;62.53;100042.52;1736404;80;21038;-70
2022/02/14 09:37:15;;;;;;;16.05;9.60;;;;;;;5.13;62.46;100029.24;1758487;79;21163;-70
2022/02/14 09:39:41;;;;;;;21.62;11.38;;;;;;;5.19;62.35;100033.94;1744677;81;21503;-70
2022/02/14 09:42:08;;;;;;;19.65;9.35;;;;;;;5.27;62.33;100030.58;1757280;81;21058;-70
2022/02/14 09:44:35;;;;;;;15.48;9.38;;;;;;;5.31;62.26;100022.19;1747568;81;21047;-70
2022/02/14 09:47:04;;;;;;;17.45;10.20;;;;;;;5.34;62.18;100021.92;1747941;81;21015;-70
2022/02/14 09:49:30;;;;;;;19.83;12.33;;;;;;;5.39;62.07;100023.63;1734113;81;21741;-70
2022/02/14 09:51:56;;;;;;;20.77;11.18;;;;;;;5.48;62.04;100020.13;1719207;83;21063;-70
2022/02/14 09:54:25;;;;;;;15.45;9.68;;;;;;;5.57;61.94;100024.16;1745790;81;21038;-70
2022/02/14 09:56:51;;;;;;;15.32;9.98;;;;;;;5.60;61.79;100023.87;1753071;81;21036;-70
2022/02/14 09:59:17;;;;;;;17.27;10.45;;;;;;;5.66;61.72;100018.02;1727561;83;21098;-70
2022/02/14 10:01:45;;;;;;;17.20;9.03;;;;;;;5.70;61.57;100025.48;1727341;82;21134;-70
2022/02/14 10:04:11;;;;;;;19.27;9.93;;;;;;;5.75;61.42;100022.40;1727702;81;21056;-70
2022/02/14 10:06:39;;;;;;;15.03;10.58;;;;;;;5.83;61.36;100021.17;1728979;81;21058;-69
2022/02/14 10:09:16;;;;;;;15.30;11.22;;;;;;;5.91;61.26;100009.40;1727010;80;21034;-70
2022/02/14 10:12:09;;;;;;;20.75;12.65;;;;;;;6.00;61.13;100015.10;1757525;81;21026;-69
2022/02/14 10:14:35;;;;;;;25.82;11.83;;;;;;;6.04;60.96;100020.44;1757189;81;21353;-69
2022/02/14 10:17:14;;;;;;;17.10;10.28;;;;;;;6.14;60.91;100014.58;1754182;81;21043;-70
2022/02/14 10:19:45;;;;;;;;;;;;;;;6.22;60.82;100016.48;1748772;80;21027;-70
2022/02/14 10:22:12;;;;;;;26.23;14.75;;;;;;;6.27;60.67;100015.02;1725357;81;20477;-70
2022/02/14 10:24:40;;;;;;;18.23;10.53;;;;;;;6.35;60.64;100005.84;1744108;80;21031;-70
2022/02/14 10:27:07;;;;;;;16.55;9.68;;;;;;;6.42;60.55;100009.54;1747607;81;21165;-70
2022/02/14 10:29:33;;;;;;;16.85;10.88;;;;;;;6.45;60.38;100005.26;1750909;81;21069;-70
2022/02/14 10:32:21;;;;;;;18.40;10.88;;;;;;;6.48;60.33;100006.27;1745172;82;21514;-70
2022/02/14 10:34:59;;;;;;;14.65;8.68;;;;;;;6.51;60.16;100009.94;1743770;81;21130;-70
2022/02/14 10:37:40;;;;;;;15.23;9.75;;;;;;;6.51;59.94;100004.64;1725595;82;21050;-70
2022/02/14 10:40:07;;;;;;;18.48;9.38;;;;;;;6.54;59.76;100008.30;1724396;81;22231;-69
2022/02/14 10:42:35;;;;;;;17.10;10.00;;;;;;;6.58;59.56;100006.17;1730561;81;21087;-70
2022/02/14 10:45:10;;;;;;;15.15;8.05;;;;;;;6.66;59.47;99997.45;1727874;81;21538;-70
2022/02/14 10:47:43;;;;;;;12.93;9.50;;;;;;;6.73;59.37;99995.36;1727772;82;21058;-70
2022/02/14 10:50:12;;;;;;;16.75;9.28;;;;;;;6.78;59.22;99989.61;1740291;81;21034;-70
2022/02/14 10:52:49;;;;;;;17.25;10.50;;;;;;;6.81;59.03;99987.97;1749645;81;21069;-70
2022/02/14 10:55:33;;;;;;;18.27;9.20;;;;;;;6.86;58.88;99984.37;1750963;81;21038;-70
2022/02/14 10:58:00;;;;;;;19.17;8.93;;;;;;;6.95;58.81;99979.44;1741097;81;21046;-70
2022/02/14 11:00:36;;;;;;;21.55;10.35;;;;;;;6.97;58.56;99963.70;1757828;80;21074;-69
2022/02/14 11:03:06;;;;;;;15.00;10.60;;;;;;;6.97;58.35;99959.73;1747908;80;21089;-69
2022/02/14 11:05:30;;;;;;;18.32;10.25;;;;;;;7.00;58.19;99955.95;1727245;82;22032;-69
2022/02/14 11:07:56;;;;;;;15.98;9.85;;;;;;;7.06;58.15;99965.92;1741923;80;21002;-70
2022/02/14 11:10:22;;;;;;;13.35;8.78;;;;;;;7.09;58.03;99951.50;1757906;81;21066;-70
2022/02/14 11:12:59;;;;;;;15.38;8.75;;;;;;;7.13;58.00;99957.67;1748702;81;21036;-70
2022/02/14 11:15:33;;;;;;;16.93;9.45;;;;;;;7.16;57.79;99958.67;1747873;81;21031;-70
2022/02/14 11:18:12;;;;;;;17.17;8.78;;;;;;;7.19;57.68;99951.72;1756973;81;21213;-69
2022/02/14 11:20:39;;;;;;;16.37;8.58;;;;;;;7.21;57.57;99964.34;1742342;81;21045;-70
2022/02/14 11:23:08;;;;;;;15.05;8.50;;;;;;;7.30;57.49;99951.44;1751544;81;21042;-70
2022/02/14 11:25:50;;;;;;;15.18;9.23;;;;;;;7.36;57.39;99964.05;1738548;81;21121;-71
2022/02/14 11:28:58;;;;;;;17.73;9.10;;;;;;;7.41;57.26;99959.11;1740639;81;21054;-70
2022/02/14 11:31:29;;;;;;;15.70;9.03;;;;;;;7.45;57.08;99960.95;1745189;80;21167;-70
2022/02/14 11:33:58;;;;;;;20.85;11.57;;;;;;;7.48;56.93;99965.44;1723331;83;21034;-70